sensor_id;sensor_type;location;lat;lon;timestamp;temperature;humidity
80290;SHT30;69592;44.804;-0.550;2023-12-20T00:01:39;10.46;99.99
80290;SHT30;69592;44.804;-0.550;2023-12-20T00:04:04;10.49;99.99
80290;SHT30;69592;44.804;-0.550;2023-12-20T00:06:30;10.56;99.99
80290;SHT30;69592;44.804;-0.550;2023-12-20T00:08:56;10.59;99.99
80290;SHT30;69592;44.804;-0.550;2023-12-20T00:11:23;10.60;99.99
80290;SHT30;69592;44.804;-0.550;2023-12-20T00:13:48;10.64;99.99
80290;SHT30;69592;44.804;-0.550;2023-12-20T00:16:13;10.66;99.99
80290;SHT30;69592;44.804;-0.550;2023-12-20T00:18:39;10.64;99.99
80290;SHT30;69592;44.804;-0.550;2023-12-20T00:21:04;10.66;99.99
80290;SHT30;69592;44.804;-0.550;2023-12-20T00:23:29;10.67;99.99
80290;SHT30;69592;44.804;-0.550;2023-12-20T00:25:55;10.67;99.99
80290;SHT30;69592;44.804;-0.550;2023-12-20T00:28:20;10.57;99.99
80290;SHT30;69592;44.804;-0.550;2023-12-20T00:30:45;10.56;99.99
80290;SHT30;69592;44.804;-0.550;2023-12-20T00:33:11;10.56;99.99
80290;SHT30;69592;44.804;-0.550;2023-12-20T00:35:36;10.64;99.99
80290;SHT30;69592;44.804;-0.550;2023-12-20T00:38:01;10.67;99.99
80290;SHT30;69592;44.804;-0.550;2023-12-20T00:40:27;10.70;99.99
80290;SHT30;69592;44.804;-0.550;2023-12-20T00:42:52;10.70;99.99
80290;SHT30;69592;44.804;-0.550;2023-12-20T00:45:18;10.68;99.99
80290;SHT30;69592;44.804;-0.550;2023-12-20T00:47:43;10.70;99.99
80290;SHT30;69592;44.804;-0.550;2023-12-20T00:50:09;10.76;99.99
80290;SHT30;69592;44.804;-0.550;2023-12-20T00:52:35;10.81;99.99
80290;SHT30;69592;44.804;-0.550;2023-12-20T00:55:00;10.78;99.99
80290;SHT30;69592;44.804;-0.550;2023-12-20T00:57:25;10.76;99.99
80290;SHT30;69592;44.804;-0.550;2023-12-20T00:59:51;10.71;99.99
80290;SHT30;69592;44.804;-0.550;2023-12-20T01:02:16;10.68;99.99
80290;SHT30;69592;44.804;-0.550;2023-12-20T01:04:41;10.70;99.99
80290;SHT30;69592;44.804;-0.550;2023-12-20T01:07:07;10.81;99.99
80290;SHT30;69592;44.804;-0.550;2023-12-20T01:09:33;10.78;99.99
80290;SHT30;69592;44.804;-0.550;2023-12-20T01:11:58;10.84;99.99
80290;SHT30;69592;44.804;-0.550;2023-12-20T01:14:24;10.87;99.99
80290;SHT30;69592;44.804;-0.550;2023-12-20T01:16:49;10.93;99.99
80290;SHT30;69592;44.804;-0.550;2023-12-20T01:19:15;10.97;99.99
80290;SHT30;69592;44.804;-0.550;2023-12-20T01:21:41;10.94;99.99
80290;SHT30;69592;44.804;-0.550;2023-12-20T01:24:06;11.01;99.99
80290;SHT30;69592;44.804;-0.550;2023-12-20T01:26:32;11.03;99.99
80290;SHT30;69592;44.804;-0.550;2023-12-20T01:28:57;11.04;99.99
80290;SHT30;69592;44.804;-0.550;2023-12-20T01:31:22;11.10;99.99
80290;SHT30;69592;44.804;-0.550;2023-12-20T01:33:48;11.12;99.99
80290;SHT30;69592;44.804;-0.550;2023-12-20T01:36:13;11.14;99.99
80290;SHT30;69592;44.804;-0.550;2023-12-20T01:38:39;11.17;99.99
80290;SHT30;69592;44.804;-0.550;2023-12-20T01:41:04;11.17;99.99
80290;SHT30;69592;44.804;-0.550;2023-12-20T01:43:30;11.18;99.99
80290;SHT30;69592;44.804;-0.550;2023-12-20T01:45:59;11.21;99.99
80290;SHT30;69592;44.804;-0.550;2023-12-20T01:48:25;11.22;99.99
80290;SHT30;69592;44.804;-0.550;2023-12-20T01:50:51;11.19;99.99
80290;SHT30;69592;44.804;-0.550;2023-12-20T01:53:19;11.22;99.99
80290;SHT30;69592;44.804;-0.550;2023-12-20T01:55:45;11.19;99.99
80290;SHT30;69592;44.804;-0.550;2023-12-20T01:58:13;11.24;99.99
80290;SHT30;69592;44.804;-0.550;2023-12-20T02:00:39;11.28;99.99
80290;SHT30;69592;44.804;-0.550;2023-12-20T02:03:04;11.35;99.99
80290;SHT30;69592;44.804;-0.550;2023-12-20T02:05:31;11.51;99.99
80290;SHT30;69592;44.804;-0.550;2023-12-20T02:07:57;11.46;99.99
80290;SHT30;69592;44.804;-0.550;2023-12-20T02:10:23;11.43;99.61
80290;SHT30;69592;44.804;-0.550;2023-12-20T02:12:49;11.38;99.63
80290;SHT30;69592;44.804;-0.550;2023-12-20T02:15:14;11.32;99.69
80290;SHT30;69592;44.804;-0.550;2023-12-20T02:17:40;11.32;99.72
80290;SHT30;69592;44.804;-0.550;2023-12-20T02:20:06;11.29;99.71
80290;SHT30;69592;44.804;-0.550;2023-12-20T02:22:31;11.25;99.76
80290;SHT30;69592;44.804;-0.550;2023-12-20T02:24:57;11.31;99.79
80290;SHT30;69592;44.804;-0.550;2023-12-20T02:27:23;11.27;99.80
80290;SHT30;69592;44.804;-0.550;2023-12-20T02:29:49;11.32;99.81
80290;SHT30;69592;44.804;-0.550;2023-12-20T02:32:16;11.28;99.82
80290;SHT30;69592;44.804;-0.550;2023-12-20T02:34:42;11.24;99.85
80290;SHT30;69592;44.804;-0.550;2023-12-20T02:37:07;11.19;99.85
80290;SHT30;69592;44.804;-0.550;2023-12-20T02:39:33;11.18;99.86
80290;SHT30;69592;44.804;-0.550;2023-12-20T02:41:58;11.22;99.92
80290;SHT30;69592;44.804;-0.550;2023-12-20T02:44:24;11.15;99.92
80290;SHT30;69592;44.804;-0.550;2023-12-20T02:46:49;11.10;99.99
80290;SHT30;69592;44.804;-0.550;2023-12-20T02:49:15;11.03;99.99
80290;SHT30;69592;44.804;-0.550;2023-12-20T02:51:46;11.08;99.99
80290;SHT30;69592;44.804;-0.550;2023-12-20T02:54:12;11.07;99.06
80290;SHT30;69592;44.804;-0.550;2023-12-20T02:56:37;11.10;99.04
80290;SHT30;69592;44.804;-0.550;2023-12-20T02:59:02;11.08;99.99
80290;SHT30;69592;44.804;-0.550;2023-12-20T03:01:30;11.04;99.99
80290;SHT30;69592;44.804;-0.550;2023-12-20T03:03:56;11.03;99.99
80290;SHT30;69592;44.804;-0.550;2023-12-20T03:06:21;11.07;99.99
80290;SHT30;69592;44.804;-0.550;2023-12-20T03:08:46;11.01;99.99
80290;SHT30;69592;44.804;-0.550;2023-12-20T03:11:12;11.04;99.99
80290;SHT30;69592;44.804;-0.550;2023-12-20T03:13:37;11.03;99.99
80290;SHT30;69592;44.804;-0.550;2023-12-20T03:16:09;11.04;99.99
80290;SHT30;69592;44.804;-0.550;2023-12-20T03:18:35;11.10;99.99
80290;SHT30;69592;44.804;-0.550;2023-12-20T03:21:00;11.07;99.99
80290;SHT30;69592;44.804;-0.550;2023-12-20T03:23:26;11.14;99.99
80290;SHT30;69592;44.804;-0.550;2023-12-20T03:25:52;11.08;99.99
80290;SHT30;69592;44.804;-0.550;2023-12-20T03:28:17;11.10;99.99
80290;SHT30;69592;44.804;-0.550;2023-12-20T03:30:43;11.12;99.99
80290;SHT30;69592;44.804;-0.550;2023-12-20T03:33:09;11.12;99.99
80290;SHT30;69592;44.804;-0.550;2023-12-20T03:35:34;11.11;99.99
80290;SHT30;69592;44.804;-0.550;2023-12-20T03:38:00;11.08;99.99
80290;SHT30;69592;44.804;-0.550;2023-12-20T03:40:25;11.10;99.99
80290;SHT30;69592;44.804;-0.550;2023-12-20T03:42:51;11.12;99.99
80290;SHT30;69592;44.804;-0.550;2023-12-20T03:45:16;11.15;99.99
80290;SHT30;69592;44.804;-0.550;2023-12-20T03:47:41;11.12;99.99
80290;SHT30;69592;44.804;-0.550;2023-12-20T03:50:07;11.04;99.99
80290;SHT30;69592;44.804;-0.550;2023-12-20T03:52:32;11.12;99.99
80290;SHT30;69592;44.804;-0.550;2023-12-20T03:54:58;11.11;99.99
80290;SHT30;69592;44.804;-0.550;2023-12-20T03:57:23;11.08;99.99
80290;SHT30;69592;44.804;-0.550;2023-12-20T03:59:48;11.14;99.99
80290;SHT30;69592;44.804;-0.550;2023-12-20T04:02:14;11.10;99.85
80290;SHT30;69592;44.804;-0.550;2023-12-20T04:04:39;11.15;99.99
80290;SHT30;69592;44.804;-0.550;2023-12-20T04:07:04;11.27;99.99
80290;SHT30;69592;44.804;-0.550;2023-12-20T04:09:30;11.19;99.92
80290;SHT30;69592;44.804;-0.550;2023-12-20T04:11:55;11.15;99.99
80290;SHT30;69592;44.804;-0.550;2023-12-20T04:14:20;11.10;99.99
80290;SHT30;69592;44.804;-0.550;2023-12-20T04:16:46;11.01;99.99
80290;SHT30;69592;44.804;-0.550;2023-12-20T04:19:11;11.04;99.99
80290;SHT30;69592;44.804;-0.550;2023-12-20T04:21:36;11.04;99.99
80290;SHT30;69592;44.804;-0.550;2023-12-20T04:24:02;11.03;99.99
80290;SHT30;69592;44.804;-0.550;2023-12-20T04:26:27;10.98;99.99
80290;SHT30;69592;44.804;-0.550;2023-12-20T04:28:54;11.03;99.74
80290;SHT30;69592;44.804;-0.550;2023-12-20T04:31:19;10.98;99.82
80290;SHT30;69592;44.804;-0.550;2023-12-20T04:33:45;10.87;98.87
80290;SHT30;69592;44.804;-0.550;2023-12-20T04:36:10;10.90;98.84
80290;SHT30;69592;44.804;-0.550;2023-12-20T04:38:36;10.85;98.78
80290;SHT30;69592;44.804;-0.550;2023-12-20T04:41:01;10.81;98.81
80290;SHT30;69592;44.804;-0.550;2023-12-20T04:43:26;10.81;98.88
80290;SHT30;69592;44.804;-0.550;2023-12-20T04:45:52;10.78;98.79
80290;SHT30;69592;44.804;-0.550;2023-12-20T04:48:17;10.77;98.51
80290;SHT30;69592;44.804;-0.550;2023-12-20T04:50:42;10.76;98.20
80290;SHT30;69592;44.804;-0.550;2023-12-20T04:53:08;10.68;98.53
80290;SHT30;69592;44.804;-0.550;2023-12-20T04:55:33;10.61;98.42
80290;SHT30;69592;44.804;-0.550;2023-12-20T04:57:58;10.47;97.30
80290;SHT30;69592;44.804;-0.550;2023-12-20T05:00:24;10.30;96.51
80290;SHT30;69592;44.804;-0.550;2023-12-20T05:02:50;10.23;97.30
80290;SHT30;69592;44.804;-0.550;2023-12-20T05:05:15;10.29;96.27
80290;SHT30;69592;44.804;-0.550;2023-12-20T05:07:42;10.22;95.75
80290;SHT30;69592;44.804;-0.550;2023-12-20T05:10:08;9.98;98.02
80290;SHT30;69592;44.804;-0.550;2023-12-20T05:12:34;10.05;97.24
80290;SHT30;69592;44.804;-0.550;2023-12-20T05:14:59;10.02;95.38
80290;SHT30;69592;44.804;-0.550;2023-12-20T05:17:25;10.03;94.46
80290;SHT30;69592;44.804;-0.550;2023-12-20T05:19:50;10.03;94.79
80290;SHT30;69592;44.804;-0.550;2023-12-20T05:22:16;10.09;93.64
80290;SHT30;69592;44.804;-0.550;2023-12-20T05:24:42;10.09;93.48
80290;SHT30;69592;44.804;-0.550;2023-12-20T05:27:07;10.10;93.61
80290;SHT30;69592;44.804;-0.550;2023-12-20T05:29:33;10.10;93.52
80290;SHT30;69592;44.804;-0.550;2023-12-20T05:31:58;10.12;93.69
80290;SHT30;69592;44.804;-0.550;2023-12-20T05:34:23;10.09;93.59
80290;SHT30;69592;44.804;-0.550;2023-12-20T05:36:49;10.15;93.65
80290;SHT30;69592;44.804;-0.550;2023-12-20T05:39:15;10.08;92.94
80290;SHT30;69592;44.804;-0.550;2023-12-20T05:41:40;10.06;92.96
80290;SHT30;69592;44.804;-0.550;2023-12-20T05:44:05;10.08;93.52
80290;SHT30;69592;44.804;-0.550;2023-12-20T05:46:32;9.91;92.81
80290;SHT30;69592;44.804;-0.550;2023-12-20T05:48:58;9.89;93.01
80290;SHT30;69592;44.804;-0.550;2023-12-20T05:51:23;9.88;92.99
80290;SHT30;69592;44.804;-0.550;2023-12-20T05:53:48;9.77;92.70
80290;SHT30;69592;44.804;-0.550;2023-12-20T05:56:15;9.82;92.36
80290;SHT30;69592;44.804;-0.550;2023-12-20T05:58:40;9.70;92.57
80290;SHT30;69592;44.804;-0.550;2023-12-20T06:01:06;9.75;92.62
80290;SHT30;69592;44.804;-0.550;2023-12-20T06:03:33;9.72;92.41
80290;SHT30;69592;44.804;-0.550;2023-12-20T06:05:59;9.68;92.11
80290;SHT30;69592;44.804;-0.550;2023-12-20T06:08:25;9.59;92.23
80290;SHT30;69592;44.804;-0.550;2023-12-20T06:10:51;9.68;92.28
80290;SHT30;69592;44.804;-0.550;2023-12-20T06:13:16;9.75;92.38
80290;SHT30;69592;44.804;-0.550;2023-12-20T06:15:42;9.75;91.81
80290;SHT30;69592;44.804;-0.550;2023-12-20T06:18:07;9.70;92.08
80290;SHT30;69592;44.804;-0.550;2023-12-20T06:20:33;9.64;91.41
80290;SHT30;69592;44.804;-0.550;2023-12-20T06:22:58;9.61;91.64
80290;SHT30;69592;44.804;-0.550;2023-12-20T06:25:24;9.58;91.11
80290;SHT30;69592;44.804;-0.550;2023-12-20T06:27:49;9.59;91.29
80290;SHT30;69592;44.804;-0.550;2023-12-20T06:30:16;9.54;91.18
80290;SHT30;69592;44.804;-0.550;2023-12-20T06:32:41;9.55;90.94
80290;SHT30;69592;44.804;-0.550;2023-12-20T06:35:08;9.42;91.19
80290;SHT30;69592;44.804;-0.550;2023-12-20T06:37:33;9.47;91.31
80290;SHT30;69592;44.804;-0.550;2023-12-20T06:39:59;9.48;91.14
80290;SHT30;69592;44.804;-0.550;2023-12-20T06:42:24;9.50;91.24
80290;SHT30;69592;44.804;-0.550;2023-12-20T06:44:50;9.47;91.39
80290;SHT30;69592;44.804;-0.550;2023-12-20T06:47:15;9.48;91.35
80290;SHT30;69592;44.804;-0.550;2023-12-20T06:49:41;9.57;91.52
80290;SHT30;69592;44.804;-0.550;2023-12-20T06:52:06;9.52;91.00
80290;SHT30;69592;44.804;-0.550;2023-12-20T06:54:31;9.35;91.32
80290;SHT30;69592;44.804;-0.550;2023-12-20T06:56:59;9.23;91.63
80290;SHT30;69592;44.804;-0.550;2023-12-20T06:59:25;9.07;91.64
80290;SHT30;69592;44.804;-0.550;2023-12-20T07:01:51;9.00;92.10
80290;SHT30;69592;44.804;-0.550;2023-12-20T07:04:16;8.93;92.02
80290;SHT30;69592;44.804;-0.550;2023-12-20T07:06:45;8.89;91.68
80290;SHT30;69592;44.804;-0.550;2023-12-20T07:09:10;8.87;92.01
80290;SHT30;69592;44.804;-0.550;2023-12-20T07:11:36;8.81;92.26
80290;SHT30;69592;44.804;-0.550;2023-12-20T07:14:01;8.79;92.46
80290;SHT30;69592;44.804;-0.550;2023-12-20T07:16:26;8.79;92.51
80290;SHT30;69592;44.804;-0.550;2023-12-20T07:18:52;8.62;92.69
80290;SHT30;69592;44.804;-0.550;2023-12-20T07:21:17;8.62;93.10
80290;SHT30;69592;44.804;-0.550;2023-12-20T07:23:43;8.45;92.93
80290;SHT30;69592;44.804;-0.550;2023-12-20T07:26:08;8.48;93.21
80290;SHT30;69592;44.804;-0.550;2023-12-20T07:28:34;8.42;93.36
80290;SHT30;69592;44.804;-0.550;2023-12-20T07:30:59;8.42;93.28
80290;SHT30;69592;44.804;-0.550;2023-12-20T07:33:25;8.36;93.67
80290;SHT30;69592;44.804;-0.550;2023-12-20T07:35:50;8.32;93.50
80290;SHT30;69592;44.804;-0.550;2023-12-20T07:38:16;8.29;93.54
80290;SHT30;69592;44.804;-0.550;2023-12-20T07:40:42;8.25;94.07
80290;SHT30;69592;44.804;-0.550;2023-12-20T07:43:07;8.14;94.04
80290;SHT30;69592;44.804;-0.550;2023-12-20T07:45:33;8.15;94.03
80290;SHT30;69592;44.804;-0.550;2023-12-20T07:47:58;8.11;94.10
80290;SHT30;69592;44.804;-0.550;2023-12-20T07:50:24;8.08;94.06
80290;SHT30;69592;44.804;-0.550;2023-12-20T07:52:50;8.09;94.00
80290;SHT30;69592;44.804;-0.550;2023-12-20T07:55:15;8.07;93.92
80290;SHT30;69592;44.804;-0.550;2023-12-20T07:57:40;8.04;94.19
80290;SHT30;69592;44.804;-0.550;2023-12-20T08:00:06;8.09;93.83
80290;SHT30;69592;44.804;-0.550;2023-12-20T08:02:32;8.08;93.95
80290;SHT30;69592;44.804;-0.550;2023-12-20T08:04:57;8.12;93.81
80290;SHT30;69592;44.804;-0.550;2023-12-20T08:07:23;8.08;94.00
80290;SHT30;69592;44.804;-0.550;2023-12-20T08:09:49;8.09;93.78
80290;SHT30;69592;44.804;-0.550;2023-12-20T08:12:14;8.15;93.90
80290;SHT30;69592;44.804;-0.550;2023-12-20T08:14:42;8.26;93.47
80290;SHT30;69592;44.804;-0.550;2023-12-20T08:17:07;8.28;93.28
80290;SHT30;69592;44.804;-0.550;2023-12-20T08:19:32;8.21;93.53
80290;SHT30;69592;44.804;-0.550;2023-12-20T08:21:58;8.15;93.50
80290;SHT30;69592;44.804;-0.550;2023-12-20T08:24:23;8.21;93.29
80290;SHT30;69592;44.804;-0.550;2023-12-20T08:26:48;8.38;92.73
80290;SHT30;69592;44.804;-0.550;2023-12-20T08:29:14;8.39;93.15
80290;SHT30;69592;44.804;-0.550;2023-12-20T08:31:39;8.50;92.88
80290;SHT30;69592;44.804;-0.550;2023-12-20T08:34:05;8.50;92.70
80290;SHT30;69592;44.804;-0.550;2023-12-20T08:36:30;8.49;92.81
80290;SHT30;69592;44.804;-0.550;2023-12-20T08:38:56;8.48;92.61
80290;SHT30;69592;44.804;-0.550;2023-12-20T08:41:21;8.50;93.09
80290;SHT30;69592;44.804;-0.550;2023-12-20T08:43:47;8.49;92.83
80290;SHT30;69592;44.804;-0.550;2023-12-20T08:46:14;8.52;92.91
80290;SHT30;69592;44.804;-0.550;2023-12-20T08:48:39;8.55;93.11
80290;SHT30;69592;44.804;-0.550;2023-12-20T08:51:05;8.56;93.10
80290;SHT30;69592;44.804;-0.550;2023-12-20T08:53:33;8.65;92.72
80290;SHT30;69592;44.804;-0.550;2023-12-20T08:55:59;8.80;92.64
80290;SHT30;69592;44.804;-0.550;2023-12-20T08:58:26;8.86;92.43
80290;SHT30;69592;44.804;-0.550;2023-12-20T09:00:51;8.94;92.66
80290;SHT30;69592;44.804;-0.550;2023-12-20T09:03:17;9.07;92.28
80290;SHT30;69592;44.804;-0.550;2023-12-20T09:05:42;9.01;92.20
80290;SHT30;69592;44.804;-0.550;2023-12-20T09:08:07;9.09;91.82
80290;SHT30;69592;44.804;-0.550;2023-12-20T09:10:35;9.16;92.22
80290;SHT30;69592;44.804;-0.550;2023-12-20T09:13:00;9.20;92.18
80290;SHT30;69592;44.804;-0.550;2023-12-20T09:15:26;9.41;91.43
80290;SHT30;69592;44.804;-0.550;2023-12-20T09:17:52;9.38;91.63
80290;SHT30;69592;44.804;-0.550;2023-12-20T09:20:18;9.45;91.35
80290;SHT30;69592;44.804;-0.550;2023-12-20T09:22:43;9.64;91.37
80290;SHT30;69592;44.804;-0.550;2023-12-20T09:25:12;9.82;90.42
80290;SHT30;69592;44.804;-0.550;2023-12-20T09:27:38;9.79;90.57
80290;SHT30;69592;44.804;-0.550;2023-12-20T09:30:04;9.74;90.10
80290;SHT30;69592;44.804;-0.550;2023-12-20T09:32:31;9.68;90.82
80290;SHT30;69592;44.804;-0.550;2023-12-20T09:34:56;9.96;90.28
80290;SHT30;69592;44.804;-0.550;2023-12-20T09:37:22;9.98;89.85
80290;SHT30;69592;44.804;-0.550;2023-12-20T09:39:48;10.06;89.14
80290;SHT30;69592;44.804;-0.550;2023-12-20T09:42:17;10.22;89.41
80290;SHT30;69592;44.804;-0.550;2023-12-20T09:44:46;10.32;89.26
80290;SHT30;69592;44.804;-0.550;2023-12-20T09:47:12;10.35;89.00
80290;SHT30;69592;44.804;-0.550;2023-12-20T09:49:40;10.50;89.07
80290;SHT30;69592;44.804;-0.550;2023-12-20T09:52:07;10.52;88.11
80290;SHT30;69592;44.804;-0.550;2023-12-20T09:54:33;10.52;87.83
80290;SHT30;69592;44.804;-0.550;2023-12-20T09:56:59;10.73;87.73
80290;SHT30;69592;44.804;-0.550;2023-12-20T09:59:24;10.68;86.76
80290;SHT30;69592;44.804;-0.550;2023-12-20T10:01:51;10.91;87.22
80290;SHT30;69592;44.804;-0.550;2023-12-20T10:04:18;10.87;86.94
80290;SHT30;69592;44.804;-0.550;2023-12-20T10:06:45;10.85;87.06
80290;SHT30;69592;44.804;-0.550;2023-12-20T10:09:11;11.06;86.57
80290;SHT30;69592;44.804;-0.550;2023-12-20T10:11:38;11.12;86.17
80290;SHT30;69592;44.804;-0.550;2023-12-20T10:14:04;11.17;86.16
80290;SHT30;69592;44.804;-0.550;2023-12-20T10:16:30;11.34;85.80
80290;SHT30;69592;44.804;-0.550;2023-12-20T10:18:56;11.29;84.26
80290;SHT30;69592;44.804;-0.550;2023-12-20T10:21:22;11.31;85.37
80290;SHT30;69592;44.804;-0.550;2023-12-20T10:23:51;11.24;84.48
80290;SHT30;69592;44.804;-0.550;2023-12-20T10:26:23;11.48;85.15
80290;SHT30;69592;44.804;-0.550;2023-12-20T10:29:15;11.62;85.39
80290;SHT30;69592;44.804;-0.550;2023-12-20T10:31:41;11.80;84.87
80290;SHT30;69592;44.804;-0.550;2023-12-20T10:34:07;12.04;84.35
80290;SHT30;69592;44.804;-0.550;2023-12-20T10:36:33;12.09;83.40
80290;SHT30;69592;44.804;-0.550;2023-12-20T10:39:00;12.07;83.35
80290;SHT30;69592;44.804;-0.550;2023-12-20T10:41:31;12.16;83.52
80290;SHT30;69592;44.804;-0.550;2023-12-20T10:43:59;12.19;83.40
80290;SHT30;69592;44.804;-0.550;2023-12-20T10:46:26;11.87;83.13
80290;SHT30;69592;44.804;-0.550;2023-12-20T10:48:53;11.96;83.21
80290;SHT30;69592;44.804;-0.550;2023-12-20T10:51:20;11.96;83.65
80290;SHT30;69592;44.804;-0.550;2023-12-20T10:53:47;11.85;83.32
80290;SHT30;69592;44.804;-0.550;2023-12-20T10:56:16;11.63;84.14
80290;SHT30;69592;44.804;-0.550;2023-12-20T10:58:42;11.76;83.96
80290;SHT30;69592;44.804;-0.550;2023-12-20T11:01:13;11.85;84.36
80290;SHT30;69592;44.804;-0.550;2023-12-20T11:03:43;12.16;83.72
80290;SHT30;69592;44.804;-0.550;2023-12-20T11:09:20;11.89;83.89
80290;SHT30;69592;44.804;-0.550;2023-12-20T11:14:46;12.10;83.09
80290;SHT30;69592;44.804;-0.550;2023-12-20T11:17:12;12.13;83.39
80290;SHT30;69592;44.804;-0.550;2023-12-20T11:22:30;11.94;84.33
80290;SHT30;69592;44.804;-0.550;2023-12-20T11:25:07;12.13;83.88
80290;SHT30;69592;44.804;-0.550;2023-12-20T11:27:40;12.26;84.05
80290;SHT30;69592;44.804;-0.550;2023-12-20T11:30:06;12.34;83.48
80290;SHT30;69592;44.804;-0.550;2023-12-20T11:32:34;12.33;83.27
80290;SHT30;69592;44.804;-0.550;2023-12-20T11:37:36;12.53;84.01
80290;SHT30;69592;44.804;-0.550;2023-12-20T11:40:05;12.33;83.17
80290;SHT30;69592;44.804;-0.550;2023-12-20T11:43:03;12.48;83.68
80290;SHT30;69592;44.804;-0.550;2023-12-20T11:45:30;12.51;83.11
80290;SHT30;69592;44.804;-0.550;2023-12-20T11:47:56;12.60;82.58
80290;SHT30;69592;44.804;-0.550;2023-12-20T11:50:23;12.57;83.53
80290;SHT30;69592;44.804;-0.550;2023-12-20T11:52:49;12.67;82.65
80290;SHT30;69592;44.804;-0.550;2023-12-20T11:55:15;12.81;82.92
80290;SHT30;69592;44.804;-0.550;2023-12-20T11:57:41;12.60;82.36
80290;SHT30;69592;44.804;-0.550;2023-12-20T12:00:07;12.73;83.41
80290;SHT30;69592;44.804;-0.550;2023-12-20T12:02:33;12.83;83.16
80290;SHT30;69592;44.804;-0.550;2023-12-20T12:05:01;12.77;83.43
80290;SHT30;69592;44.804;-0.550;2023-12-20T12:07:27;12.85;83.62
80290;SHT30;69592;44.804;-0.550;2023-12-20T12:09:52;12.65;83.38
80290;SHT30;69592;44.804;-0.550;2023-12-20T12:12:19;12.60;83.95
80290;SHT30;69592;44.804;-0.550;2023-12-20T12:14:45;12.47;83.37
80290;SHT30;69592;44.804;-0.550;2023-12-20T12:17:11;12.54;84.08
80290;SHT30;69592;44.804;-0.550;2023-12-20T12:19:38;12.83;83.86
80290;SHT30;69592;44.804;-0.550;2023-12-20T12:22:09;13.14;82.75
80290;SHT30;69592;44.804;-0.550;2023-12-20T12:24:38;13.19;83.40
80290;SHT30;69592;44.804;-0.550;2023-12-20T12:27:06;13.32;82.41
80290;SHT30;69592;44.804;-0.550;2023-12-20T12:29:32;13.16;82.42
80290;SHT30;69592;44.804;-0.550;2023-12-20T12:31:57;13.30;82.42
80290;SHT30;69592;44.804;-0.550;2023-12-20T12:34:23;13.30;82.23
80290;SHT30;69592;44.804;-0.550;2023-12-20T12:36:48;13.11;83.22
80290;SHT30;69592;44.804;-0.550;2023-12-20T12:39:15;12.99;83.00
80290;SHT30;69592;44.804;-0.550;2023-12-20T12:41:43;13.08;83.20
80290;SHT30;69592;44.804;-0.550;2023-12-20T12:44:08;13.22;83.26
80290;SHT30;69592;44.804;-0.550;2023-12-20T12:46:34;13.16;83.02
80290;SHT30;69592;44.804;-0.550;2023-12-20T12:48:59;13.25;82.85
80290;SHT30;69592;44.804;-0.550;2023-12-20T12:51:25;13.15;82.74
80290;SHT30;69592;44.804;-0.550;2023-12-20T12:53:50;13.08;82.80
80290;SHT30;69592;44.804;-0.550;2023-12-20T12:56:16;12.77;82.82
80290;SHT30;69592;44.804;-0.550;2023-12-20T12:58:42;12.73;82.91
80290;SHT30;69592;44.804;-0.550;2023-12-20T13:01:07;12.64;82.84
80290;SHT30;69592;44.804;-0.550;2023-12-20T13:03:33;12.63;83.65
80290;SHT30;69592;44.804;-0.550;2023-12-20T13:05:59;12.63;83.50
80290;SHT30;69592;44.804;-0.550;2023-12-20T13:08:24;12.69;83.38
80290;SHT30;69592;44.804;-0.550;2023-12-20T13:10:50;12.78;83.46
80290;SHT30;69592;44.804;-0.550;2023-12-20T13:13:15;12.73;83.36
80290;SHT30;69592;44.804;-0.550;2023-12-20T13:15:41;12.65;84.01
80290;SHT30;69592;44.804;-0.550;2023-12-20T13:18:07;12.58;83.30
80290;SHT30;69592;44.804;-0.550;2023-12-20T13:20:32;12.61;84.16
80290;SHT30;69592;44.804;-0.550;2023-12-20T13:22:58;12.83;84.25
80290;SHT30;69592;44.804;-0.550;2023-12-20T13:25:24;12.85;84.29
80290;SHT30;69592;44.804;-0.550;2023-12-20T13:27:50;12.92;84.42
80290;SHT30;69592;44.804;-0.550;2023-12-20T13:30:16;12.94;84.43
80290;SHT30;69592;44.804;-0.550;2023-12-20T13:32:42;12.85;84.57
80290;SHT30;69592;44.804;-0.550;2023-12-20T13:35:08;12.88;84.16
80290;SHT30;69592;44.804;-0.550;2023-12-20T13:37:34;13.05;84.40
80290;SHT30;69592;44.804;-0.550;2023-12-20T13:39:59;13.14;83.40
80290;SHT30;69592;44.804;-0.550;2023-12-20T13:42:25;13.11;82.90
80290;SHT30;69592;44.804;-0.550;2023-12-20T13:44:52;13.01;82.86
80290;SHT30;69592;44.804;-0.550;2023-12-20T13:47:18;12.78;82.95
80290;SHT30;69592;44.804;-0.550;2023-12-20T13:49:44;12.83;83.24
80290;SHT30;69592;44.804;-0.550;2023-12-20T13:52:10;12.92;82.98
80290;SHT30;69592;44.804;-0.550;2023-12-20T13:54:36;13.01;80.89
80290;SHT30;69592;44.804;-0.550;2023-12-20T13:57:01;13.11;80.17
80290;SHT30;69592;44.804;-0.550;2023-12-20T13:59:28;12.92;79.56
80290;SHT30;69592;44.804;-0.550;2023-12-20T14:01:53;13.08;79.62
80290;SHT30;69592;44.804;-0.550;2023-12-20T14:04:20;13.09;79.86
80290;SHT30;69592;44.804;-0.550;2023-12-20T14:06:46;13.04;79.37
80290;SHT30;69592;44.804;-0.550;2023-12-20T14:09:12;13.30;78.71
80290;SHT30;69592;44.804;-0.550;2023-12-20T14:11:37;13.32;77.75
80290;SHT30;69592;44.804;-0.550;2023-12-20T14:14:09;13.57;77.06
80290;SHT30;69592;44.804;-0.550;2023-12-20T14:16:34;13.76;76.63
80290;SHT30;69592;44.804;-0.550;2023-12-20T14:19:00;13.84;76.22
80290;SHT30;69592;44.804;-0.550;2023-12-20T14:21:25;13.67;77.65
80290;SHT30;69592;44.804;-0.550;2023-12-20T14:23:50;13.88;79.83
80290;SHT30;69592;44.804;-0.550;2023-12-20T14:26:17;14.14;79.31
80290;SHT30;69592;44.804;-0.550;2023-12-20T14:28:43;13.93;79.17
80290;SHT30;69592;44.804;-0.550;2023-12-20T14:31:09;13.97;79.70
80290;SHT30;69592;44.804;-0.550;2023-12-20T14:33:35;14.06;79.46
80290;SHT30;69592;44.804;-0.550;2023-12-20T14:36:01;13.81;78.46
80290;SHT30;69592;44.804;-0.550;2023-12-20T14:38:32;13.71;79.96
80290;SHT30;69592;44.804;-0.550;2023-12-20T14:41:05;13.69;79.71
80290;SHT30;69592;44.804;-0.550;2023-12-20T14:43:33;13.43;79.29
80290;SHT30;69592;44.804;-0.550;2023-12-20T14:45:59;13.26;78.98
80290;SHT30;69592;44.804;-0.550;2023-12-20T14:48:24;13.36;80.39
80290;SHT30;69592;44.804;-0.550;2023-12-20T14:50:52;13.23;79.96
80290;SHT30;69592;44.804;-0.550;2023-12-20T14:53:17;13.26;80.32
80290;SHT30;69592;44.804;-0.550;2023-12-20T14:55:44;12.95;80.08
80290;SHT30;69592;44.804;-0.550;2023-12-20T14:58:09;12.89;80.70
80290;SHT30;69592;44.804;-0.550;2023-12-20T15:00:34;12.91;80.23
80290;SHT30;69592;44.804;-0.550;2023-12-20T15:03:00;12.98;80.36
80290;SHT30;69592;44.804;-0.550;2023-12-20T15:05:25;13.15;79.95
80290;SHT30;69592;44.804;-0.550;2023-12-20T15:07:52;13.26;79.42
80290;SHT30;69592;44.804;-0.550;2023-12-20T15:10:18;13.40;79.72
80290;SHT30;69592;44.804;-0.550;2023-12-20T15:12:44;13.40;79.01
80290;SHT30;69592;44.804;-0.550;2023-12-20T15:15:10;13.47;78.83
80290;SHT30;69592;44.804;-0.550;2023-12-20T15:17:35;13.49;78.83
80290;SHT30;69592;44.804;-0.550;2023-12-20T15:20:02;13.46;77.77
80290;SHT30;69592;44.804;-0.550;2023-12-20T15:22:27;13.27;77.33
80290;SHT30;69592;44.804;-0.550;2023-12-20T15:24:53;13.26;78.55